createdAt,value
2023-12-29T00:01:37.707Z,88.10
2023-12-29T00:04:05.233Z,88.00
2023-12-29T00:06:32.561Z,88.10
2023-12-29T00:09:01.568Z,88.00
2023-12-29T00:11:28.798Z,88.00
2023-12-29T00:13:56.073Z,87.90
2023-12-29T00:16:23.255Z,87.90
2023-12-29T00:18:50.735Z,87.80
2023-12-29T00:21:20.631Z,87.80
2023-12-29T00:23:48.336Z,87.60
2023-12-29T00:26:19.199Z,87.60
2023-12-29T00:28:54.772Z,87.60
2023-12-29T00:31:22.135Z,87.60
2023-12-29T00:33:53.428Z,87.60
2023-12-29T00:36:21.387Z,87.50
2023-12-29T00:38:48.559Z,87.50
2023-12-29T00:41:15.771Z,87.40
2023-12-29T00:43:42.951Z,87.30
2023-12-29T00:46:10.439Z,87.30
2023-12-29T00:48:37.958Z,87.30
2023-12-29T00:51:05.653Z,87.20
2023-12-29T00:53:33.497Z,87.30
2023-12-29T00:56:01.299Z,87.10
2023-12-29T00:58:28.642Z,87.10
2023-12-29T01:00:56.135Z,87.20
2023-12-29T01:03:25.584Z,87.10
2023-12-29T01:05:53.871Z,87.10
2023-12-29T01:08:21.229Z,87.10
2023-12-29T01:10:48.424Z,87.60
2023-12-29T01:13:15.614Z,87.00
2023-12-29T01:15:46.113Z,87.10
2023-12-29T01:18:14.432Z,87.00
2023-12-29T01:20:42.329Z,87.00
2023-12-29T01:23:09.543Z,87.00
2023-12-29T01:25:37.196Z,87.00
2023-12-29T01:28:04.659Z,87.60
2023-12-29T01:30:32.050Z,87.10
2023-12-29T01:32:59.417Z,87.00
2023-12-29T01:35:26.819Z,87.00
2023-12-29T01:37:54.163Z,87.00
2023-12-29T01:40:21.410Z,86.90
2023-12-29T01:42:48.713Z,86.80
2023-12-29T01:45:45.896Z,86.80
2023-12-29T01:48:20.064Z,86.70
2023-12-29T01:50:47.571Z,86.70
2023-12-29T01:53:14.882Z,86.70
2023-12-29T01:55:43.692Z,86.60
2023-12-29T01:58:11.481Z,86.70
2023-12-29T02:00:39.214Z,86.70
2023-12-29T02:03:06.632Z,86.70
2023-12-29T02:05:37.778Z,86.70
2023-12-29T02:08:09.116Z,86.80
2023-12-29T02:10:38.210Z,86.80
2023-12-29T02:13:05.784Z,87.00
2023-12-29T02:15:33.141Z,87.00
2023-12-29T02:18:07.500Z,87.00
2023-12-29T02:20:35.329Z,87.00
2023-12-29T02:23:03.719Z,87.00
2023-12-29T02:25:32.125Z,86.80
2023-12-29T02:28:07.478Z,86.70
2023-12-29T02:30:42.024Z,86.50
2023-12-29T02:33:14.408Z,86.40
2023-12-29T02:35:44.787Z,86.30
2023-12-29T02:38:13.591Z,86.20
2023-12-29T02:40:41.587Z,86.10
2023-12-29T02:43:12.822Z,86.00
2023-12-29T02:45:40.257Z,85.80
2023-12-29T02:48:08.145Z,85.90
2023-12-29T02:50:35.422Z,85.70
2023-12-29T02:53:02.726Z,85.60
2023-12-29T02:55:30.030Z,85.50
2023-12-29T02:57:57.560Z,85.10
2023-12-29T03:00:24.895Z,85.10
2023-12-29T03:02:52.185Z,84.70
2023-12-29T03:05:19.531Z,84.90
2023-12-29T03:07:46.774Z,84.80
2023-12-29T03:10:14.021Z,84.70
2023-12-29T03:12:41.247Z,84.50
2023-12-29T03:15:08.736Z,84.70
2023-12-29T03:17:36.182Z,84.60
2023-12-29T03:20:07.152Z,84.70
2023-12-29T03:22:34.537Z,84.60
2023-12-29T03:25:01.867Z,84.70
2023-12-29T03:27:29.101Z,84.70
2023-12-29T03:29:56.377Z,84.60
2023-12-29T03:32:23.542Z,85.10
2023-12-29T03:34:50.921Z,84.50
2023-12-29T03:37:18.146Z,84.30
2023-12-29T03:39:47.875Z,84.20
2023-12-29T03:42:15.121Z,84.10
2023-12-29T03:44:42.298Z,83.80
2023-12-29T03:47:11.875Z,83.70
2023-12-29T03:49:39.403Z,83.50
2023-12-29T03:52:06.891Z,83.40
2023-12-29T03:54:34.502Z,83.60
2023-12-29T03:57:02.016Z,83.50
2023-12-29T03:59:29.302Z,83.60
2023-12-29T04:01:57.342Z,83.70
2023-12-29T04:04:24.954Z,83.80
2023-12-29T04:06:52.308Z,83.80
2023-12-29T04:09:19.530Z,83.60
2023-12-29T04:11:46.777Z,83.60
2023-12-29T04:14:14.282Z,83.40
2023-12-29T04:16:41.780Z,83.10
2023-12-29T04:19:09.182Z,83.20
2023-12-29T04:21:36.447Z,82.90
2023-12-29T04:24:04.670Z,82.70
2023-12-29T04:26:39.850Z,81.80
2023-12-29T04:29:07.113Z,82.10
2023-12-29T04:31:35.078Z,81.80
2023-12-29T04:34:02.378Z,81.90
2023-12-29T04:36:29.633Z,81.90
2023-12-29T04:38:56.858Z,81.60
2023-12-29T04:41:24.129Z,81.80
2023-12-29T04:43:51.993Z,82.00
2023-12-29T04:46:19.237Z,81.60
2023-12-29T04:48:46.524Z,81.20
2023-12-29T04:51:13.849Z,81.30
2023-12-29T04:53:41.153Z,81.10
2023-12-29T04:56:08.509Z,81.50
2023-12-29T04:58:35.686Z,81.40
2023-12-29T05:01:02.925Z,81.30
2023-12-29T05:03:30.232Z,81.50
2023-12-29T05:05:57.616Z,81.40
2023-12-29T05:08:24.878Z,81.20
2023-12-29T05:10:52.205Z,81.20
2023-12-29T05:13:20.042Z,81.20
2023-12-29T05:15:47.434Z,81.00
2023-12-29T05:18:14.720Z,81.00
2023-12-29T05:20:42.079Z,80.80
2023-12-29T05:23:09.279Z,80.80
2023-12-29T05:25:36.726Z,80.70
2023-12-29T05:28:04.538Z,80.20
2023-12-29T05:30:33.636Z,80.30
2023-12-29T05:33:01.002Z,80.40
2023-12-29T05:35:28.362Z,80.10
2023-12-29T05:37:55.625Z,80.20
2023-12-29T05:40:23.022Z,80.20
2023-12-29T05:42:50.356Z,80.00
2023-12-29T05:45:18.930Z,79.80
2023-12-29T05:47:46.247Z,80.00
2023-12-29T05:50:13.905Z,80.00
2023-12-29T05:52:41.245Z,80.10
2023-12-29T05:55:09.016Z,80.00
2023-12-29T05:57:36.378Z,80.00
2023-12-29T06:00:03.960Z,79.90
2023-12-29T06:02:39.378Z,79.90
2023-12-29T06:05:06.949Z,79.90
2023-12-29T06:07:35.376Z,79.80
2023-12-29T06:10:02.755Z,79.70
2023-12-29T06:12:30.146Z,79.90
2023-12-29T06:14:57.628Z,80.00
2023-12-29T06:17:24.926Z,80.00
2023-12-29T06:19:52.167Z,80.00
2023-12-29T06:22:19.590Z,80.00
2023-12-29T06:24:46.964Z,80.70
2023-12-29T06:27:14.346Z,80.20
2023-12-29T06:29:43.840Z,80.20
2023-12-29T06:32:11.196Z,80.20
2023-12-29T06:34:38.625Z,80.20
2023-12-29T06:37:06.148Z,80.30
2023-12-29T06:39:33.699Z,80.30
2023-12-29T06:42:01.092Z,80.50
2023-12-29T06:44:28.383Z,80.70
2023-12-29T06:46:55.663Z,80.70
2023-12-29T06:49:23.051Z,80.60
2023-12-29T06:51:50.357Z,80.70
2023-12-29T06:54:17.624Z,81.00
2023-12-29T06:56:45.360Z,81.20
2023-12-29T06:59:12.652Z,81.50
2023-12-29T07:01:41.859Z,81.60
2023-12-29T07:04:11.657Z,81.70
2023-12-29T07:06:39.513Z,81.90
2023-12-29T07:09:07.162Z,82.10
2023-12-29T07:11:34.561Z,82.20
2023-12-29T07:14:02.201Z,82.30
2023-12-29T07:16:29.969Z,82.40
2023-12-29T07:18:57.446Z,82.50
2023-12-29T07:21:24.820Z,82.50
2023-12-29T07:23:52.167Z,82.50
2023-12-29T07:26:19.486Z,82.40
2023-12-29T07:28:46.773Z,82.30
2023-12-29T07:31:14.145Z,82.30
2023-12-29T07:33:41.741Z,82.40
2023-12-29T07:36:09.238Z,82.50
2023-12-29T07:38:36.574Z,82.50
2023-12-29T07:41:03.948Z,82.50
2023-12-29T07:43:32.884Z,82.60
2023-12-29T07:46:00.393Z,82.50
2023-12-29T07:48:27.806Z,82.40
2023-12-29T07:50:55.203Z,82.50
2023-12-29T07:53:22.479Z,82.50
2023-12-29T07:55:51.503Z,82.50
2023-12-29T07:58:18.754Z,82.60
2023-12-29T08:00:47.062Z,82.60
2023-12-29T08:03:14.302Z,82.60
2023-12-29T08:05:41.644Z,82.60
2023-12-29T08:08:08.919Z,82.60
2023-12-29T08:10:36.191Z,82.40
2023-12-29T08:13:03.411Z,82.50
2023-12-29T08:15:30.662Z,82.40
2023-12-29T08:17:58.077Z,82.20
2023-12-29T08:20:25.680Z,82.10
2023-12-29T08:22:52.931Z,82.00
2023-12-29T08:25:20.230Z,82.00
2023-12-29T08:27:47.500Z,82.00
2023-12-29T08:30:14.963Z,82.10
2023-12-29T08:32:42.294Z,82.10
2023-12-29T08:35:10.054Z,82.00
2023-12-29T08:37:37.391Z,82.10
2023-12-29T08:40:05.127Z,81.90
2023-12-29T08:42:32.327Z,81.80
2023-12-29T08:45:02.825Z,81.30
2023-12-29T08:47:30.103Z,81.10
2023-12-29T08:49:57.351Z,80.90
2023-12-29T08:52:24.567Z,80.50
2023-12-29T08:54:51.795Z,80.70
2023-12-29T08:57:18.981Z,80.70
2023-12-29T08:59:46.141Z,80.80
2023-12-29T09:02:13.311Z,80.70
2023-12-29T09:04:40.545Z,80.90
2023-12-29T09:07:08.109Z,81.00
2023-12-29T09:09:35.350Z,81.00
2023-12-29T09:12:03.110Z,81.20
2023-12-29T09:14:32.450Z,81.10
2023-12-29T09:16:59.684Z,81.00
2023-12-29T09:19:31.755Z,81.00
2023-12-29T09:22:06.608Z,80.90
2023-12-29T09:24:33.818Z,80.90
2023-12-29T09:27:01.163Z,80.80
2023-12-29T09:29:28.352Z,80.50
2023-12-29T09:31:55.537Z,80.50
2023-12-29T09:34:22.858Z,80.30
2023-12-29T09:36:50.255Z,80.20
2023-12-29T09:39:17.504Z,80.00
2023-12-29T09:41:48.596Z,80.00
2023-12-29T09:44:16.949Z,80.00
2023-12-29T09:46:45.605Z,79.90
2023-12-29T09:49:14.626Z,79.90
2023-12-29T09:51:42.737Z,79.60
2023-12-29T09:54:13.323Z,79.80
2023-12-29T09:56:42.480Z,79.90
2023-12-29T09:59:12.616Z,80.20
2023-12-29T10:01:42.592Z,80.20
2023-12-29T10:04:10.529Z,80.30
2023-12-29T10:06:40.098Z,80.30
2023-12-29T10:09:11.981Z,80.40
2023-12-29T10:11:42.201Z,80.40
2023-12-29T10:14:38.594Z,80.40
2023-12-29T10:17:14.459Z,80.30
2023-12-29T10:19:43.237Z,80.30
2023-12-29T10:22:46.007Z,80.20
2023-12-29T10:25:14.413Z,79.90
2023-12-29T10:27:41.790Z,80.00
2023-12-29T10:30:21.535Z,79.70
2023-12-29T10:32:53.870Z,79.50
2023-12-29T10:35:21.245Z,79.50
2023-12-29T10:37:48.886Z,79.50
2023-12-29T10:40:20.630Z,79.20
2023-12-29T10:42:59.055Z,78.80
2023-12-29T10:45:26.505Z,78.90
2023-12-29T10:47:54.387Z,78.90
2023-12-29T10:50:21.706Z,78.50
2023-12-29T10:52:49.062Z,78.30
2023-12-29T10:55:16.415Z,78.30
2023-12-29T10:57:43.822Z,77.90
2023-12-29T11:00:13.680Z,77.40
2023-12-29T11:02:42.861Z,77.20
2023-12-29T11:05:10.565Z,76.60
2023-12-29T11:07:39.905Z,76.30
2023-12-29T11:10:10.931Z,75.70
2023-12-29T11:12:39.762Z,76.00
2023-12-29T11:15:08.172Z,75.30
2023-12-29T11:17:38.203Z,74.70
2023-12-29T11:20:06.663Z,75.00
2023-12-29T11:22:34.901Z,75.00
2023-12-29T11:25:02.403Z,74.60
2023-12-29T11:27:32.737Z,74.60
2023-12-29T11:30:05.606Z,74.40
2023-12-29T11:32:53.425Z,73.90
2023-12-29T11:35:38.910Z,73.80
2023-12-29T11:38:14.764Z,73.10
2023-12-29T11:40:48.913Z,72.30
2023-12-29T11:43:19.040Z,72.20
2023-12-29T11:45:46.711Z,72.40
2023-12-29T11:48:14.787Z,72.20
2023-12-29T11:50:44.588Z,71.70
2023-12-29T11:53:34.416Z,71.40
2023-12-29T11:56:01.707Z,71.40
2023-12-29T11:58:30.462Z,71.70
2023-12-29T12:00:58.853Z,71.70
2023-12-29T12:03:28.726Z,71.40
2023-12-29T12:06:05.007Z,71.70
2023-12-29T12:08:35.768Z,71.70
2023-12-29T12:11:30.718Z,71.40
2023-12-29T12:13:58.218Z,71.40
2023-12-29T12:16:46.065Z,71.70
2023-12-29T12:19:14.458Z,72.20
2023-12-29T12:21:42.314Z,72.60
2023-12-29T12:24:09.941Z,72.90
2023-12-29T12:26:37.224Z,72.60
2023-12-29T12:29:06.062Z,72.40
2023-12-29T12:31:33.358Z,72.80
2023-12-29T12:34:01.914Z,72.90
2023-12-29T12:36:29.579Z,73.00
2023-12-29T12:38:59.185Z,72.60
2023-12-29T12:41:30.272Z,72.40
2023-12-29T12:44:13.605Z,71.70
2023-12-29T12:46:58.496Z,72.00
2023-12-29T12:49:25.925Z,71.80
2023-12-29T12:51:55.797Z,71.90
2023-12-29T12:54:23.689Z,71.60
2023-12-29T12:56:51.731Z,71.60
2023-12-29T12:59:19.175Z,71.70
2023-12-29T13:01:46.859Z,71.80
2023-12-29T13:04:15.200Z,71.70
2023-12-29T13:06:49.371Z,71.60
2023-12-29T13:09:20.866Z,71.90
2023-12-29T13:11:48.173Z,71.90
2023-12-29T13:14:24.456Z,71.60
2023-12-29T13:16:52.016Z,71.40
2023-12-29T13:19:26.181Z,71.40
2023-12-29T13:21:57.009Z,71.70
2023-12-29T13:24:26.618Z,71.50
2023-12-29T13:26:58.978Z,71.60
2023-12-29T13:29:28.195Z,71.50
2023-12-29T13:31:59.500Z,71.30
2023-12-29T13:34:51.840Z,71.40
2023-12-29T13:37:43.286Z,71.70
2023-12-29T13:40:29.166Z,71.90
2023-12-29T13:43:05.122Z,72.10
2023-12-29T13:45:33.583Z,72.20
2023-12-29T13:48:02.864Z,72.10
2023-12-29T13:50:30.543Z,72.30
2023-12-29T13:52:57.953Z,72.30
2023-12-29T13:55:26.535Z,72.60
2023-12-29T13:57:54.876Z,72.70
2023-12-29T14:00:24.532Z,72.80
2023-12-29T14:02:56.835Z,72.90
2023-12-29T14:05:45.056Z,73.50
2023-12-29T14:08:21.544Z,73.00
2023-12-29T14:10:48.887Z,73.10
2023-12-29T14:13:17.622Z,73.70
2023-12-29T14:15:52.407Z,73.20
2023-12-29T14:18:35.016Z,73.10
2023-12-29T14:21:02.383Z,73.20
2023-12-29T14:23:29.621Z,73.30
2023-12-29T14:26:04.564Z,73.40
2023-12-29T14:28:31.730Z,73.60
2023-12-29T14:31:04.975Z,73.50
2023-12-29T14:33:32.396Z,73.60
2023-12-29T14:35:59.841Z,73.70
2023-12-29T14:38:27.986Z,73.80
2023-12-29T14:40:55.209Z,73.90
2023-12-29T14:43:22.505Z,73.90
2023-12-29T14:45:49.922Z,73.90
2023-12-29T14:48:17.291Z,73.90
2023-12-29T14:50:47.099Z,74.00
2023-12-29T14:53:14.480Z,74.00
2023-12-29T14:55:41.844Z,74.00
2023-12-29T14:58:09.122Z,74.10
2023-12-29T15:00:36.471Z,74.20
2023-12-29T15:03:04.146Z,74.20
2023-12-29T15:05:31.521Z,74.20
2023-12-29T15:07:59.058Z,74.30
2023-12-29T15:10:26.412Z,74.40
2023-12-29T15:12:53.652Z,74.50
2023-12-29T15:15:21.617Z,74.60
2023-12-29T15:17:49.380Z,74.50
2023-12-29T15:20:16.817Z,74.60
2023-12-29T15:22:44.610Z,74.70
2023-12-29T15:25:12.146Z,74.70
2023-12-29T15:27:39.385Z,74.80
2023-12-29T15:30:07.370Z,74.80
2023-12-29T15:32:34.587Z,74.90
2023-12-29T15:35:01.874Z,74.90
2023-12-29T15:37:29.089Z,74.90
2023-12-29T15:39:56.432Z,75.00
2023-12-29T15:42:23.872Z,75.00
2023-12-29T15:44:51.135Z,75.10
2023-12-29T15:47:18.395Z,75.20
2023-12-29T15:49:45.699Z,75.20
2023-12-29T15:52:13.113Z,75.20
2023-12-29T15:54:40.405Z,75.80
2023-12-29T15:57:09.411Z,75.30
2023-12-29T15:59:37.181Z,75.30
2023-12-29T16:02:05.132Z,75.90
2023-12-29T16:04:32.719Z,75.30
2023-12-29T16:06:59.956Z,75.30
2023-12-29T16:09:27.278Z,75.30
2023-12-29T16:11:55.987Z,75.30
2023-12-29T16:14:23.494Z,75.30
2023-12-29T16:16:50.937Z,75.30
2023-12-29T16:19:18.361Z,75.20
2023-12-29T16:21:45.664Z,75.20
2023-12-29T16:24:13.905Z,75.20
2023-12-29T16:26:47.420Z,75.30
2023-12-29T16:29:15.820Z,75.30
2023-12-29T16:31:42.988Z,75.30
2023-12-29T16:34:10.297Z,75.30
2023-12-29T16:36:38.674Z,75.30
2023-12-29T16:39:05.835Z,75.20
2023-12-29T16:41:35.017Z,75.20
2023-12-29T16:44:02.665Z,75.20
2023-12-29T16:46:29.935Z,75.20
2023-12-29T16:48:57.326Z,75.30
2023-12-29T16:51:24.564Z,75.30
2023-12-29T16:53:51.684Z,75.40
2023-12-29T16:56:19.042Z,75.40
2023-12-29T16:58:46.403Z,75.40
2023-12-29T17:01:13.753Z,75.40
2023-12-29T17:03:41.118Z,75.40
2023-12-29T17:06:08.807Z,75.40
2023-12-29T17:08:37.140Z,75.40
2023-12-29T17:11:05.392Z,75.40
2023-12-29T17:13:35.265Z,75.30
2023-12-29T17:16:05.116Z,75.30
2023-12-29T17:18:33.157Z,75.30
2023-12-29T17:21:00.618Z,75.40
2023-12-29T17:23:27.829Z,75.40
2023-12-29T17:25:58.998Z,75.40
2023-12-29T17:28:27.339Z,75.40
2023-12-29T17:30:54.888Z,75.40
2023-12-29T17:33:22.314Z,75.60
2023-12-29T17:35:49.650Z,75.60
2023-12-29T17:38:16.940Z,75.70
2023-12-29T17:40:44.462Z,75.70
2023-12-29T17:43:11.780Z,75.70
2023-12-29T17:45:39.523Z,75.70
2023-12-29T17:48:07.409Z,75.70
2023-12-29T17:50:34.781Z,75.50
2023-12-29T17:53:02.230Z,75.50
2023-12-29T17:55:29.753Z,75.40
2023-12-29T17:57:57.014Z,75.30
2023-12-29T18:00:24.261Z,75.30
2023-12-29T18:02:51.528Z,75.10
2023-12-29T18:05:18.721Z,75.10
2023-12-29T18:07:46.114Z,75.20
2023-12-29T18:10:13.940Z,75.00
2023-12-29T18:12:41.417Z,75.00
2023-12-29T18:15:12.510Z,75.10
2023-12-29T18:17:39.889Z,75.00
2023-12-29T18:20:07.803Z,74.90
2023-12-29T18:22:38.577Z,74.90
2023-12-29T18:25:06.954Z,74.80
2023-12-29T18:27:34.596Z,74.70
2023-12-29T18:30:02.146Z,74.70
2023-12-29T18:32:29.417Z,74.60
2023-12-29T18:34:56.896Z,74.40
2023-12-29T18:37:25.680Z,74.50
2023-12-29T18:39:53.213Z,74.60
2023-12-29T18:42:20.490Z,74.40
2023-12-29T18:44:48.654Z,74.70
2023-12-29T18:47:16.056Z,74.60
2023-12-29T18:49:43.450Z,74.70
2023-12-29T18:52:11.837Z,74.70
2023-12-29T18:54:39.064Z,74.70
2023-12-29T18:57:06.491Z,74.70
2023-12-29T18:59:33.718Z,74.80
2023-12-29T19:02:02.991Z,74.80
2023-12-29T19:04:30.407Z,75.40
2023-12-29T19:06:57.929Z,75.00
2023-12-29T19:09:25.179Z,75.00
2023-12-29T19:11:52.784Z,75.10
2023-12-29T19:14:20.225Z,75.30
2023-12-29T19:16:48.674Z,75.40
2023-12-29T19:19:18.547Z,75.40
2023-12-29T19:21:49.632Z,75.40
2023-12-29T19:24:18.312Z,75.50
2023-12-29T19:26:46.220Z,75.70
2023-12-29T19:29:13.623Z,75.80
2023-12-29T19:31:41.281Z,75.90
2023-12-29T19:34:08.996Z,76.00
2023-12-29T19:36:36.675Z,76.10
2023-12-29T19:39:04.043Z,76.20
2023-12-29T19:41:36.073Z,76.30
2023-12-29T19:44:04.908Z,76.40
2023-12-29T19:46:33.033Z,76.50
2023-12-29T19:49:00.667Z,76.50
2023-12-29T19:51:28.392Z,76.60
2023-12-29T19:53:57.289Z,76.80
2023-12-29T19:56:29.295Z,76.90
2023-12-29T19:58:56.978Z,77.00
2023-12-29T20:01:26.756Z,77.00
2023-12-29T20:03:54.512Z,77.10
2023-12-29T20:06:24.006Z,77.20
2023-12-29T20:08:52.728Z,77.40
2023-12-29T20:11:21.738Z,77.50
2023-12-29T20:13:50.514Z,77.70
2023-12-29T20:16:25.556Z,77.70
2023-12-29T20:18:54.291Z,77.80
2023-12-29T20:21:25.745Z,78.10
2023-12-29T20:23:53.691Z,78.20
2023-12-29T20:26:21.142Z,78.30
2023-12-29T20:28:49.171Z,78.30
2023-12-29T20:31:27.593Z,78.50
2023-12-29T20:33:55.678Z,78.50
2023-12-29T20:36:24.245Z,78.50
2023-12-29T20:38:53.831Z,78.70
2023-12-29T20:41:22.569Z,78.80
2023-12-29T20:43:52.616Z,78.90
2023-12-29T20:46:23.482Z,78.90
2023-12-29T20:48:52.620Z,79.10
2023-12-29T20:51:21.215Z,79.30
2023-12-29T20:53:52.906Z,79.30
2023-12-29T20:56:20.997Z,79.40
2023-12-29T20:58:52.588Z,79.50
2023-12-29T21:01:22.093Z,79.60
2023-12-29T21:03:49.635Z,79.60
2023-12-29T21:06:20.449Z,79.60
2023-12-29T21:08:49.140Z,79.70
2023-12-29T21:11:20.902Z,79.60
2023-12-29T21:13:48.450Z,80.00
2023-12-29T21:16:17.581Z,80.10
2023-12-29T21:18:45.566Z,80.40
2023-12-29T21:21:13.183Z,80.40
2023-12-29T21:23:41.152Z,80.60
2023-12-29T21:26:08.978Z,80.60
2023-12-29T21:28:36.554Z,80.80
2023-12-29T21:31:04.354Z,80.90
2023-12-29T21:33:31.790Z,81.10
2023-12-29T21:35:59.134Z,81.10
2023-12-29T21:38:26.318Z,80.90
2023-12-29T21:40:53.681Z,80.80
2023-12-29T21:43:20.933Z,80.70
2023-12-29T21:45:48.175Z,80.80
2023-12-29T21:48:18.773Z,80.90
2023-12-29T21:50:46.288Z,80.90
2023-12-29T21:53:13.466Z,80.90
2023-12-29T21:55:40.698Z,80.80
2023-12-29T21:58:08.363Z,80.90
2023-12-29T22:00:35.699Z,80.90
2023-12-29T22:03:03.816Z,81.40
2023-12-29T22:05:31.258Z,81.50
2023-12-29T22:07:58.512Z,81.90
2023-12-29T22:10:25.789Z,82.20
2023-12-29T22:12:54.723Z,81.90
2023-12-29T22:15:22.085Z,81.90
2023-12-29T22:17:49.353Z,82.00
2023-12-29T22:20:17.438Z,82.00
2023-12-29T22:22:44.638Z,82.30
2023-12-29T22:25:12.541Z,82.00
2023-12-29T22:27:39.811Z,82.00
2023-12-29T22:30:07.740Z,82.00
2023-12-29T22:32:35.141Z,81.80
2023-12-29T22:35:02.724Z,81.90
2023-12-29T22:37:30.159Z,82.00
2023-12-29T22:39:57.543Z,81.80
2023-12-29T22:42:28.474Z,81.70
2023-12-29T22:44:55.750Z,81.90
2023-12-29T22:47:22.976Z,81.90
2023-12-29T22:49:50.223Z,81.80
2023-12-29T22:52:17.503Z,81.90
2023-12-29T22:54:44.976Z,81.80
2023-12-29T22:57:12.338Z,81.80
2023-12-29T22:59:39.880Z,81.70
2023-12-29T23:02:07.243Z,81.70
2023-12-29T23:04:35.598Z,81.90
2023-12-29T23:07:03.076Z,82.00
2023-12-29T23:09:32.909Z,82.00
2023-12-29T23:12:00.502Z,82.10
2023-12-29T23:14:27.757Z,82.20
2023-12-29T23:16:55.030Z,82.30
2023-12-29T23:19:22.323Z,82.60
2023-12-29T23:21:49.546Z,82.60
2023-12-29T23:24:16.808Z,82.70
2023-12-29T23:26:44.717Z,82.70
2023-12-29T23:29:12.050Z,82.80
2023-12-29T23:31:39.242Z,83.10
2023-12-29T23:34:06.633Z,83.20
2023-12-29T23:36:34.059Z,83.10
2023-12-29T23:39:01.260Z,83.20
2023-12-29T23:41:28.632Z,83.40
2023-12-29T23:43:56.241Z,83.50
2023-12-29T23:46:23.496Z,83.40
2023-12-29T23:48:50.741Z,83.60
2023-12-29T23:51:19.577Z,83.60
2023-12-29T23:53:46.790Z,83.40
2023-12-29T23:56:15.757Z,83.30
2023-12-29T23:58:43.600Z,83.40
